Fangst — LK6971 — position and weather

sailwx.info

Track history (hours):
 
Tides and Currents Weather Stations Pressure Air Temp Water Temp Dewpoint Dewpoint Depression Visibility Wind Speed Wind Dir Waves Ship Positions

Oceanographic research ship Fangst (Norway)

Detailed information on ship capabilities available from University of Delaware's Ocean Information Center and ARCUS's ALIAS (Arctic Logistics Information and Support) project.

Last reported at 2017-Sep-22 02:00 UTC. Time now 2017-Sep-23 05:41 UTC.
Position N 69°32' E 019°01'.

Length 14 m; draft 2.5 m.

Type: Fishing. MMSI: 257076840.

Date/timePositionNaut miles runAvg speedWind from/ knotsBaromVisibWave heightAir tempDewpointWater temp
2017-Sep-22 02:00N 69°32' E 019°01'0 0.0
2017-Sep-22 01:30N 69°32' E 019°01'0 0.0
2017-Sep-22 01:00N 69°32' E 019°01'0 0.0
2017-Sep-22 00:30N 69°32' E 019°01'0 0.0
2017-Sep-22 00:00N 69°32' E 019°01'0 0.0
2017-Sep-21 23:30N 69°32' E 019°01'0 0.0
2017-Sep-21 23:00N 69°32' E 019°01'0 0.0
2017-Sep-21 22:29N 69°32' E 019°01'0 0.0
2017-Sep-21 21:59N 69°32' E 019°01'0 0.0
2017-Sep-21 21:30N 69°32' E 019°01'0 0.0
2017-Sep-21 21:00N 69°32' E 019°01'0 0.0
2017-Sep-21 20:30N 69°32' E 019°01'0 0.0
2017-Sep-21 20:00N 69°32' E 019°01'0 0.0
2017-Sep-21 19:30N 69°32' E 019°01'0 0.0
2017-Sep-21 19:00N 69°32' E 019°01'0 0.0
2017-Sep-21 18:30N 69°32' E 019°01'0 0.0
2017-Sep-21 18:00N 69°32' E 019°01'0 0.4
2017-Sep-21 17:30N 69°32' E 019°02'0 0.2
2017-Sep-21 17:00N 69°32' E 019°02'1 1.3
2017-Sep-21 16:30N 69°32' E 019°03'1 2.2
2017-Sep-21 16:00N 69°31' E 019°01'2 3.9
2017-Sep-21 15:30N 69°31' E 018°56'0 0.4
2017-Sep-21 15:00N 69°31' E 018°57'0 0.5
2017-Sep-21 14:30N 69°31' E 018°57'0 1.0
2017-Sep-21 14:00N 69°30' E 018°56'1 2.4
2017-Sep-21 13:30N 69°31' E 018°59'1 2.2
2017-Sep-21 13:00N 69°32' E 019°02'0 0.5
2017-Sep-21 12:30N 69°32' E 019°01'0 0.9
2017-Sep-21 12:00N 69°32' E 019°02'0 0.5
2017-Sep-21 11:30N 69°32' E 019°03'0 0.5
2017-Sep-21 11:00N 69°32' E 019°03'0 0.4
2017-Sep-21 10:30N 69°32' E 019°03'0 0.8
2017-Sep-21 09:59N 69°33' E 019°03'0 0.2
2017-Sep-21 09:30N 69°33' E 019°03'1 2.2
2017-Sep-21 09:00N 69°32' E 019°02'1 2.6
2017-Sep-21 08:30N 69°33' E 019°04'0 0.2
2017-Sep-21 08:00N 69°33' E 019°04'1 2.8
2017-Sep-21 07:30N 69°32' E 019°02'0 0.3
2017-Sep-21 06:59N 69°32' E 019°02'0 0.5
2017-Sep-21 06:30N 69°32' E 019°01'0 0.0
2017-Sep-21 06:00N 69°32' E 019°01'0 0.0
2017-Sep-21 05:30N 69°32' E 019°01'0 0.0
2017-Sep-21 05:00N 69°32' E 019°01'0 0.0
2017-Sep-21 04:30N 69°32' E 019°01'0 0.0
2017-Sep-21 04:00N 69°32' E 019°01'0 0.0
2017-Sep-21 03:30N 69°32' E 019°01'0 0.0
2017-Sep-21 03:00N 69°32' E 019°01'0 0.0
2017-Sep-21 02:30N 69°32' E 019°01'0 0.0
2017-Sep-21 02:00N 69°32' E 019°01'0 0.0
2017-Sep-21 01:29N 69°32' E 019°01'0 0.0
2017-Sep-21 01:00N 69°32' E 019°01'0 0.0
2017-Sep-21 00:30N 69°32' E 019°01'0 0.0
2017-Sep-21 00:00N 69°32' E 019°01'0 0.0
2017-Sep-20 23:30N 69°32' E 019°01'0 0.0
2017-Sep-20 23:00N 69°32' E 019°01'0 0.0
2017-Sep-20 22:30N 69°32' E 019°01'0 0.0
2017-Sep-20 22:00N 69°32' E 019°01'0 0.0
2017-Sep-20 21:30N 69°32' E 019°01'0 0.0
2017-Sep-20 21:00N 69°32' E 019°01'0 0.0
2017-Sep-20 20:30N 69°32' E 019°01'0 0.0
2017-Sep-20 20:00N 69°32' E 019°01'0 0.0
2017-Sep-20 19:30N 69°32' E 019°01'0 0.0
2017-Sep-20 19:00N 69°32' E 019°01'0 0.0
2017-Sep-20 18:30N 69°32' E 019°01'0 0.0
2017-Sep-20 18:00N 69°32' E 019°01'0 0.0
2017-Sep-20 17:30N 69°32' E 019°01'0 0.5
2017-Sep-20 17:00N 69°32' E 019°02'1 1.3
2017-Sep-20 16:30N 69°32' E 019°03'1 1.2
2017-Sep-20 16:00N 69°32' E 019°02'0 0.2
2017-Sep-20 15:30N 69°32' E 019°02'0 0.1
2017-Sep-20 14:59N 69°32' E 019°02'0 0.2
2017-Sep-20 14:00N 69°32' E 019°02'1 2.0
2017-Sep-20 13:30N 69°33' E 019°03'0 0.5
2017-Sep-20 13:00N 69°33' E 019°03'0 0.2
2017-Sep-20 12:30N 69°33' E 019°03'1 1.7
2017-Sep-20 12:00N 69°32' E 019°03'0 0.1
2017-Sep-20 11:30N 69°32' E 019°03'0 0.1
2017-Sep-20 11:00N 69°32' E 019°03'0 1.0
2017-Sep-20 10:30N 69°32' E 019°03'0 0.1
2017-Sep-20 10:00N 69°32' E 019°03'0 1.0
2017-Sep-20 09:30N 69°32' E 019°02'0 0.6
2017-Sep-20 09:00N 69°32' E 019°02'0 0.4
2017-Sep-20 08:30N 69°32' E 019°02'0 0.6
2017-Sep-20 08:00N 69°32' E 019°02'0 0.2
2017-Sep-20 07:30N 69°32' E 019°02'0 0.3
2017-Sep-20 07:00N 69°32' E 019°02'0 0.3
2017-Sep-20 06:30N 69°32' E 019°01'0 0.0
2017-Sep-20 06:00N 69°32' E 019°01'0 0.0
2017-Sep-20 05:30N 69°32' E 019°01'0 0.0
2017-Sep-20 05:00N 69°32' E 019°01'0 0.0
2017-Sep-20 04:30N 69°32' E 019°01'0 0.0
2017-Sep-20 03:59N 69°32' E 019°01'0 0.0
2017-Sep-20 03:30N 69°32' E 019°01'0 0.0
2017-Sep-20 03:00N 69°32' E 019°01'0 0.0
2017-Sep-20 02:30N 69°32' E 019°01'0 0.0
2017-Sep-20 02:00N 69°32' E 019°01'0 0.0
2017-Sep-20 01:30N 69°32' E 019°01'0 0.0
2017-Sep-20 01:00N 69°32' E 019°01'0 0.0
2017-Sep-20 00:30N 69°32' E 019°01'0 0.0
2017-Sep-20 00:00N 69°32' E 019°01'0 0.0
2017-Sep-19 23:30N 69°32' E 019°01'0 0.0
2017-Sep-19 23:00N 69°32' E 019°01'0 0.0
2017-Sep-19 22:30N 69°32' E 019°01'0 0.0
2017-Sep-19 22:00N 69°32' E 019°01'0 0.0
2017-Sep-19 21:30N 69°32' E 019°01'0 0.0
2017-Sep-19 21:00N 69°32' E 019°01'0 0.0
2017-Sep-19 20:30N 69°32' E 019°01'0 0.0
2017-Sep-19 20:00N 69°32' E 019°01'0 0.0
2017-Sep-19 19:30N 69°32' E 019°01'0 0.0
2017-Sep-19 19:00N 69°32' E 019°01'0 0.0
2017-Sep-19 18:30N 69°32' E 019°01'0 0.0
2017-Sep-19 18:00N 69°32' E 019°01'0 0.0
2017-Sep-19 17:30N 69°32' E 019°01'0 0.0
2017-Sep-19 17:00N 69°32' E 019°01'0 0.0
2017-Sep-19 16:30N 69°32' E 019°01'1 1.0
2017-Sep-19 16:00N 69°32' E 019°03'1 1.0
2017-Sep-19 15:30N 69°32' E 019°03'0 0.9
2017-Sep-19 15:00N 69°32' E 019°03'0 0.4
2017-Sep-19 14:30N 69°32' E 019°03'0 0.3
2017-Sep-19 14:00N 69°32' E 019°03'2 4.7
2017-Sep-19 13:29N 69°31' E 018°57'0 0.7
2017-Sep-19 13:00N 69°30' E 018°57'0 0.5
2017-Sep-19 12:30N 69°31' E 018°56'1 1.5
2017-Sep-19 12:00N 69°30' E 018°56'0 0.6
2017-Sep-19 11:31N 69°30' E 018°56'0 0.8
2017-Sep-19 11:00N 69°31' E 018°56'2 4.0
2017-Sep-19 10:30N 69°32' E 018°54'2 3.7
2017-Sep-19 10:00N 69°34' E 018°53'0 0.5
2017-Sep-19 09:30N 69°34' E 018°53'1 2.0
2017-Sep-19 09:00N 69°35' E 018°54'2 4.9
2017-Sep-19 08:30N 69°37' E 018°56'2 3.7
2017-Sep-19 08:00N 69°39' E 018°58'0 0.0
2017-Sep-19 07:30N 69°39' E 018°58'0 0.0
2017-Sep-19 07:00N 69°39' E 018°58'0 0.0
2017-Sep-19 06:30N 69°39' E 018°58'0 0.0
2017-Sep-19 06:00N 69°39' E 018°58'0 0.0
2017-Sep-19 05:29N 69°39' E 018°58'0 0.0
2017-Sep-19 05:00N 69°39' E 018°58'0 0.0
2017-Sep-19 04:30N 69°39' E 018°58'0 0.0
2017-Sep-19 04:00N 69°39' E 018°58'0 0.0
2017-Sep-19 03:30N 69°39' E 018°58'0 0.0
2017-Sep-19 02:59N 69°39' E 018°58'0 0.0
2017-Sep-19 02:30N 69°39' E 018°58'0 0.0
2017-Sep-19 02:00N 69°39' E 018°58'0 0.0
2017-Sep-19 01:30N 69°39' E 018°58'0 0.0
2017-Sep-19 01:00N 69°39' E 018°58'0 0.0
2017-Sep-19 00:30N 69°39' E 018°58'0 0.0
2017-Sep-18 23:59N 69°39' E 018°58'0 0.0
2017-Sep-18 23:30N 69°39' E 018°58'0 0.0
2017-Sep-18 23:00N 69°39' E 018°58'0 0.0
2017-Sep-18 22:30N 69°39' E 018°58'0 0.0
2017-Sep-18 22:00N 69°39' E 018°58'0 0.0
2017-Sep-18 21:30N 69°39' E 018°58'0 0.0
2017-Sep-18 21:00N 69°39' E 018°58'0 0.0
2017-Sep-18 20:30N 69°39' E 018°58'0 0.0
2017-Sep-18 20:00N 69°39' E 018°58'0 0.0
2017-Sep-18 19:30N 69°39' E 018°58'0 0.0
2017-Sep-18 19:00N 69°39' E 018°58'0 0.0
2017-Sep-18 18:30N 69°39' E 018°58'0 0.0
2017-Sep-18 18:00N 69°39' E 018°58'0 0.0
2017-Sep-18 17:30N 69°39' E 018°58'0 0.0
2017-Sep-18 17:00N 69°39' E 018°58'2 3.9
2017-Sep-18 16:30N 69°37' E 018°56'3 6.2
2017-Sep-18 16:00N 69°34' E 018°53'0 0.9
2017-Sep-18 15:30N 69°34' E 018°54'1 2.5
2017-Sep-18 15:00N 69°35' E 018°53'3 5.0
2017-Sep-18 14:30N 69°38' E 018°56'2 4.1
2017-Sep-18 14:00N 69°39' E 018°58'1 1.2
2017-Sep-18 13:29N 69°39' E 018°58'1 1.2
2017-Sep-18 13:00N 69°39' E 018°59'1 2.3
2017-Sep-18 12:30N 69°40' E 018°59'1 1.9
2017-Sep-18 12:00N 69°39' E 018°58'0 0.0
2017-Sep-18 11:29N 69°39' E 018°58'0 0.0
2017-Sep-18 11:00N 69°39' E 018°58'0 0.0
2017-Sep-18 10:30N 69°39' E 018°58'0 0.0
2017-Sep-18 09:59N 69°39' E 018°58'0 0.0
2017-Sep-18 09:30N 69°39' E 018°58'1 1.3
2017-Sep-18 09:00N 69°39' E 018°58'0 0.4
2017-Sep-18 08:30N 69°39' E 018°58'0 0.0
2017-Sep-18 08:00N 69°39' E 018°58'0 0.0
2017-Sep-18 07:29N 69°39' E 018°58'0 0.0
2017-Sep-18 07:00N 69°39' E 018°58'0 0.0
2017-Sep-18 06:30N 69°39' E 018°58'0 0.0
2017-Sep-18 06:00N 69°39' E 018°58'0 0.0
2017-Sep-18 05:30N 69°39' E 018°58'0 0.0
2017-Sep-18 05:00N 69°39' E 018°58'0 0.0
2017-Sep-18 04:30N 69°39' E 018°58'0 0.0
2017-Sep-18 04:00N 69°39' E 018°58'0 0.0
2017-Sep-18 03:30N 69°39' E 018°58'0 0.0
2017-Sep-18 03:00N 69°39' E 018°58'0 0.0
2017-Sep-18 02:30N 69°39' E 018°58'0 0.0
2017-Sep-18 02:00N 69°39' E 018°58'0 0.0
2017-Sep-18 01:29N 69°39' E 018°58'0 0.0
2017-Sep-18 00:59N 69°39' E 018°58'0 0.0
2017-Sep-18 00:30N 69°39' E 018°58'0 0.0
2017-Sep-18 00:00N 69°39' E 018°58'0 0.0
2017-Sep-17 23:30N 69°39' E 018°58'0 0.0
2017-Sep-17 23:00N 69°39' E 018°58'0 0.0
2017-Sep-17 22:30N 69°39' E 018°58'0 0.0
2017-Sep-17 22:00N 69°39' E 018°58'0 0.0
2017-Sep-17 21:30N 69°39' E 018°58'0 0.0
2017-Sep-17 21:00N 69°39' E 018°58'0 0.0
2017-Sep-17 20:30N 69°39' E 018°58'0 0.0
2017-Sep-17 20:00N 69°39' E 018°58'0 0.0
2017-Sep-17 19:30N 69°39' E 018°58'0 0.0
2017-Sep-17 19:00N 69°39' E 018°58'0 0.0
2017-Sep-17 18:30N 69°39' E 018°58'0 0.0
2017-Sep-17 18:00N 69°39' E 018°58'0 0.0
2017-Sep-17 17:30N 69°39' E 018°58'0 0.0
2017-Sep-17 17:00N 69°39' E 018°58'0 0.0
2017-Sep-17 16:30N 69°39' E 018°58'0 0.0
2017-Sep-17 16:00N 69°39' E 018°58'0 0.0
2017-Sep-17 15:30N 69°39' E 018°58'0 0.0
2017-Sep-17 15:00N 69°39' E 018°58'0 0.0
2017-Sep-17 14:29N 69°39' E 018°58'0 0.0
2017-Sep-17 14:00N 69°39' E 018°58'0 0.0
2017-Sep-17 13:30N 69°39' E 018°58'0 0.0
2017-Sep-17 13:00N 69°39' E 018°58'0 0.0
2017-Sep-17 12:30N 69°39' E 018°58'0 0.0
2017-Sep-17 12:00N 69°39' E 018°58'0 0.0
2017-Sep-17 11:30N 69°39' E 018°58'0 0.0
2017-Sep-17 11:00N 69°39' E 018°58'0 0.1
2017-Sep-17 10:30N 69°39' E 018°58'0 0.0
2017-Sep-17 10:00N 69°39' E 018°58'0 0.0
2017-Sep-17 09:30N 69°39' E 018°58'0 0.0
2017-Sep-17 09:00N 69°39' E 018°58'0 0.0
2017-Sep-17 08:30N 69°39' E 018°58'0 0.0
2017-Sep-17 08:00N 69°39' E 018°58'0 0.0
2017-Sep-17 07:30N 69°39' E 018°58'0 0.0
2017-Sep-17 07:00N 69°39' E 018°58'0 0.0
2017-Sep-17 06:30N 69°39' E 018°58'0 0.0
2017-Sep-17 05:59N 69°39' E 018°58'0 0.0
2017-Sep-17 05:29N 69°39' E 018°58'0 0.0
2017-Sep-17 05:00N 69°39' E 018°58'0 0.0
2017-Sep-17 04:29N 69°39' E 018°58'0 0.0
2017-Sep-17 04:00N 69°39' E 018°58'0 0.0
2017-Sep-17 03:30N 69°39' E 018°58'0 0.0
2017-Sep-17 03:00N 69°39' E 018°58'0 0.0
2017-Sep-17 02:30N 69°39' E 018°58'0 0.0
2017-Sep-17 02:00N 69°39' E 018°58'0 0.0
2017-Sep-17 01:30N 69°39' E 018°58'0 0.0
2017-Sep-17 01:00N 69°39' E 018°58'0 0.0
2017-Sep-17 00:30N 69°39' E 018°58'0 0.0
2017-Sep-16 23:59N 69°39' E 018°58'0 0.0
2017-Sep-16 23:30N 69°39' E 018°58'0 0.0
2017-Sep-16 23:00N 69°39' E 018°58'0 0.0
2017-Sep-16 22:30N 69°39' E 018°58'0 0.0
2017-Sep-16 22:00N 69°39' E 018°58'1 2.5
2017-Sep-16 21:30N 69°38' E 018°56'4 7.0
2017-Sep-16 20:59N 69°35' E 018°50'4 7.3
2017-Sep-16 20:30N 69°33' E 018°42'4 7.5
2017-Sep-16 20:00N 69°32' E 018°32'4 7.5
2017-Sep-16 19:30N 69°31' E 018°21'4 7.2
2017-Sep-16 19:00N 69°29' E 018°12'3 6.7
2017-Sep-16 18:30N 69°26' E 018°07'4 7.1
2017-Sep-16 18:00N 69°23' E 018°05'3 6.2
2017-Sep-16 17:30N 69°20' E 018°02'3 6.6
2017-Sep-16 17:00N 69°17' E 017°58'3 6.9
2017-Sep-16 16:30N 69°13' E 017°59'3 5.7
2017-Sep-16 16:00N 69°10' E 017°58'4 7.1
2017-Sep-16 15:30N 69°09' E 017°49'4 7.2
2017-Sep-16 15:00N 69°08' E 017°40'4 7.1
2017-Sep-16 14:30N 69°06' E 017°30'4 7.2
2017-Sep-16 14:00N 69°04' E 017°22'4 7.1
2017-Sep-16 13:30N 69°01' E 017°16'3 7.1
2017-Sep-16 13:00N 68°58' E 017°11'4 7.4
2017-Sep-16 12:30N 68°55' E 017°04'4 7.1
2017-Sep-16 12:00N 68°52' E 016°59'4 7.3
2017-Sep-16 11:30N 68°49' E 016°54'4 7.4
2017-Sep-16 11:00N 68°46' E 016°49'4 7.2
2017-Sep-16 10:30N 68°43' E 016°43'4 7.2
2017-Sep-16 10:00N 68°40' E 016°38'4 8.2
2017-Sep-16 09:30N 68°36' E 016°33'4 7.4
2017-Sep-16 09:00N 68°33' E 016°27'4 7.6
2017-Sep-16 08:30N 68°33' E 016°16'3 7.0
2017-Sep-16 08:00N 68°31' E 016°10'3 7.0
2017-Sep-16 07:30N 68°28' E 016°05'3 6.8
2017-Sep-16 07:00N 68°24' E 016°01'3 6.5
2017-Sep-16 06:30N 68°22' E 015°56'3 6.4
2017-Sep-16 05:59N 68°19' E 015°51'3 6.6
2017-Sep-16 05:30N 68°17' E 015°45'3 6.4
2017-Sep-16 05:00N 68°15' E 015°39'3 6.3
2017-Sep-16 04:30N 68°13' E 015°32'3 6.5
2017-Sep-16 04:00N 68°10' E 015°26'3 6.6
2017-Sep-16 03:29N 68°08' E 015°20'3 6.8
2017-Sep-16 03:00N 68°05' E 015°16'3 6.9
2017-Sep-16 02:30N 68°01' E 015°17'3 7.0
2017-Sep-16 02:00N 67°58' E 015°20'3 6.2
2017-Sep-16 01:30N 67°55' E 015°17'3 6.6
2017-Sep-16 01:00N 67°54' E 015°09'3 6.7
2017-Sep-16 00:29N 67°55' E 014°60'3 6.6
2017-Sep-16 00:00N 67°53' E 014°52'3 6.6
2017-Sep-15 23:30N 67°52' E 014°44'3 6.3
2017-Sep-15 23:00N 67°49' E 014°38'3 6.1
2017-Sep-15 22:30N 67°47' E 014°32'3 6.5
2017-Sep-15 22:00N 67°44' E 014°31'3 6.6
2017-Sep-15 21:30N 67°41' E 014°31'3 6.6
2017-Sep-15 21:00N 67°38' E 014°30'3 6.7
2017-Sep-15 20:30N 67°34' E 014°30'3 6.6
2017-Sep-15 20:00N 67°31' E 014°29'3 6.6
2017-Sep-15 19:30N 67°28' E 014°28'3 6.4
2017-Sep-15 19:00N 67°25' E 014°26'3 6.7
2017-Sep-15 18:30N 67°22' E 014°23'3 6.9
2017-Sep-15 18:00N 67°19' E 014°17'3 6.9
2017-Sep-15 17:30N 67°16' E 014°12'3 7.0
2017-Sep-15 17:00N 67°13' E 014°08'4 7.1
2017-Sep-15 16:30N 67°10' E 014°03'4 7.2
2017-Sep-15 16:00N 67°07' E 013°59'4 7.0
2017-Sep-15 15:30N 67°04' E 013°54'4 7.1
2017-Sep-15 15:00N 67°02' E 013°46'4 7.2
2017-Sep-15 14:30N 66°60' E 013°39'4 7.2
2017-Sep-15 14:00N 66°58' E 013°31'3 6.8
2017-Sep-15 13:30N 66°54' E 013°29'4 7.1
2017-Sep-15 13:00N 66°52' E 013°22'4 7.1
2017-Sep-15 12:30N 66°50' E 013°16'4 7.2
2017-Sep-15 12:00N 66°46' E 013°14'3 7.0
2017-Sep-15 11:30N 66°43' E 013°11'3 7.0
2017-Sep-15 11:00N 66°40' E 013°07'4 7.1
2017-Sep-15 10:30N 66°36' E 013°04'3 6.7
2017-Sep-15 10:00N 66°33' E 013°02'3 6.4
2017-Sep-15 09:30N 66°30' E 012°59'4 7.2
2017-Sep-15 09:00N 66°26' E 012°59'3 7.1
2017-Sep-15 08:30N 66°23' E 012°58'4 7.0
2017-Sep-15 08:00N 66°19' E 012°57'3 6.9
2017-Sep-15 07:30N 66°16' E 012°55'4 7.2
2017-Sep-15 07:00N 66°13' E 012°52'4 7.2
2017-Sep-15 06:30N 66°09' E 012°49'4 7.2
2017-Sep-15 06:00N 66°06' E 012°44'4 7.2
2017-Sep-15 05:30N 66°04' E 012°38'4 7.3
2017-Sep-15 05:00N 66°01' E 012°32'0 1.0
2017-Sep-15 04:30N 66°01' E 012°32'4 7.1
2017-Sep-15 04:00N 65°58' E 012°27'4 7.0
2017-Sep-15 03:30N 65°55' E 012°23'4 7.1
2017-Sep-15 03:00N 65°51' E 012°22'4 7.1
2017-Sep-15 02:29N 65°48' E 012°20'4 7.0
2017-Sep-15 01:59N 65°44' E 012°18'4 7.1
2017-Sep-15 01:30N 65°41' E 012°16'4 7.1
2017-Sep-15 01:00N 65°37' E 012°15'3 7.0
2017-Sep-15 00:30N 65°34' E 012°13'3 6.9
2017-Sep-15 00:00N 65°30' E 012°12'2 4.5
2017-Sep-14 23:30N 65°28' E 012°12'2 3.0
2017-Sep-14 22:59N 65°27' E 012°10'3 6.8
2017-Sep-14 22:30N 65°24' E 012°07'3 6.9
2017-Sep-14 22:00N 65°21' E 012°03'3 6.8
2017-Sep-14 21:30N 65°18' E 011°59'3 6.9
2017-Sep-14 21:00N 65°15' E 011°56'4 7.2
2017-Sep-14 20:30N 65°11' E 011°52'3 7.0
2017-Sep-14 20:00N 65°08' E 011°50'3 6.7
2017-Sep-14 19:30N 65°05' E 011°47'3 6.6
2017-Sep-14 19:00N 65°02' E 011°43'3 6.3
2017-Sep-14 18:30N 65°00' E 011°37'3 7.0
2017-Sep-14 18:00N 64°58' E 011°32'4 7.2
2017-Sep-14 17:30N 64°55' E 011°25'4 7.8
2017-Sep-14 17:00N 64°53' E 011°18'2 4.4
2017-Sep-14 16:30N 64°52' E 011°14'0 0.0
2017-Sep-14 16:00N 64°52' E 011°14'0 0.0
2017-Sep-14 15:30N 64°52' E 011°14'0 0.2
2017-Sep-14 15:00N 64°52' E 011°14'0 0.0
2017-Sep-14 14:30N 64°52' E 011°14'0 0.0
2017-Sep-14 14:00N 64°52' E 011°14'0 0.0
2017-Sep-14 13:30N 64°52' E 011°14'0 0.0
2017-Sep-14 13:00N 64°52' E 011°14'0 0.0
2017-Sep-14 12:30N 64°52' E 011°14'0 0.0
2017-Sep-14 12:00N 64°52' E 011°14'0 0.0
2017-Sep-14 11:30N 64°52' E 011°14'0 0.0
2017-Sep-14 11:00N 64°52' E 011°14'0 0.0
2017-Sep-14 10:30N 64°52' E 011°14'0 0.0
2017-Sep-14 10:00N 64°52' E 011°14'0 0.0
2017-Sep-14 09:30N 64°52' E 011°14'1 2.0
2017-Sep-14 09:00N 64°51' E 011°12'3 6.5
2017-Sep-14 08:30N 64°49' E 011°06'3 6.6
2017-Sep-14 08:00N 64°48' E 010°58'3 6.6
2017-Sep-14 07:30N 64°49' E 010°51'3 6.4
2017-Sep-14 07:00N 64°49' E 010°43'3 6.7
2017-Sep-14 06:30N 64°48' E 010°36'1 2.7
2017-Sep-14 05:59N 64°48' E 010°33'0 0.0
2017-Sep-14 05:30N 64°48' E 010°33'0 0.0
2017-Sep-14 05:00N 64°48' E 010°33'0 0.0
2017-Sep-14 04:30N 64°48' E 010°33'0 0.0
2017-Sep-14 04:00N 64°48' E 010°33'0 0.0
2017-Sep-14 03:30N 64°48' E 010°33'0 0.0
2017-Sep-14 03:00N 64°48' E 010°33'0 0.0
2017-Sep-14 02:30N 64°48' E 010°33'0 0.0
2017-Sep-14 02:00N 64°48' E 010°33'0 0.0
2017-Sep-14 01:29N 64°48' E 010°33'0 0.0
2017-Sep-14 01:00N 64°48' E 010°33'0 0.0
2017-Sep-14 00:29N 64°48' E 010°33'0 0.0
2017-Sep-14 00:00N 64°48' E 010°33'0 0.0
2017-Sep-13 23:30N 64°48' E 010°33'0 0.0
2017-Sep-13 23:00N 64°48' E 010°33'0 0.0
2017-Sep-13 22:30N 64°48' E 010°33'0 0.0
2017-Sep-13 22:00N 64°48' E 010°33'0 0.0
2017-Sep-13 21:30N 64°48' E 010°33'0 0.0
2017-Sep-13 21:00N 64°48' E 010°33'0 0.0
2017-Sep-13 20:30N 64°48' E 010°33'0 0.0
2017-Sep-13 20:00N 64°48' E 010°33'0 0.0
2017-Sep-13 19:30N 64°48' E 010°33'0 0.0
2017-Sep-13 19:00N 64°48' E 010°33'0 0.0
2017-Sep-13 18:30N 64°48' E 010°33'0 0.0
2017-Sep-13 17:59N 64°48' E 010°33'0 0.0
2017-Sep-13 17:30N 64°48' E 010°33'0 0.0
2017-Sep-13 17:00N 64°48' E 010°33'0 0.0
2017-Sep-13 16:30N 64°48' E 010°33'0 0.0
2017-Sep-13 15:59N 64°48' E 010°33'0 0.0
2017-Sep-13 15:30N 64°48' E 010°33'0 0.0
2017-Sep-13 15:00N 64°48' E 010°33'0 0.0
2017-Sep-13 14:29N 64°48' E 010°33'0 0.0
2017-Sep-13 14:00N 64°48' E 010°33'0 0.0
2017-Sep-13 13:29N 64°48' E 010°33'0 0.0
2017-Sep-13 13:00N 64°48' E 010°33'0 0.0
2017-Sep-13 12:30N 64°48' E 010°33'0 0.0
2017-Sep-13 12:00N 64°48' E 010°33'0 0.0
2017-Sep-13 11:30N 64°48' E 010°33'0 0.0
2017-Sep-13 10:59N 64°48' E 010°33'0 0.0
2017-Sep-13 10:30N 64°48' E 010°33'0 0.0
2017-Sep-13 10:00N 64°48' E 010°33'0 0.0
2017-Sep-13 09:30N 64°48' E 010°33'2 3.7
2017-Sep-13 09:00N 64°47' E 010°36'1 2.6
2017-Sep-13 08:30N 64°47' E 010°39'2 3.3
2017-Sep-13 08:00N 64°45' E 010°37'1 3.0
2017-Sep-13 07:30N 64°46' E 010°34'3 5.6
2017-Sep-13 06:59N 64°48' E 010°33'0 0.0
2017-Sep-13 06:30N 64°48' E 010°33'0 0.0
2017-Sep-13 06:00N 64°48' E 010°33'0 0.0
2017-Sep-13 05:30N 64°48' E 010°33'0 0.0
2017-Sep-13 05:00N 64°48' E 010°33'0 0.0
2017-Sep-13 04:29N 64°48' E 010°33'0 0.0
2017-Sep-13 04:00N 64°48' E 010°33'0 0.0
2017-Sep-13 03:30N 64°48' E 010°33'0 0.0
2017-Sep-13 03:00N 64°48' E 010°33'0 0.0
2017-Sep-13 02:30N 64°48' E 010°33'0 0.0
2017-Sep-13 02:00N 64°48' E 010°33'0 0.0
2017-Sep-13 01:30N 64°48' E 010°33'0 0.0
2017-Sep-13 01:00N 64°48' E 010°33'0 0.0
2017-Sep-13 00:30N 64°48' E 010°33'0 0.0
2017-Sep-13 00:00N 64°48' E 010°33'0 0.0
2017-Sep-12 23:30N 64°48' E 010°33'0 0.0
2017-Sep-12 23:00N 64°48' E 010°33'0 0.0
2017-Sep-12 22:30N 64°48' E 010°33'0 0.0
2017-Sep-12 22:00N 64°48' E 010°33'0 0.0
2017-Sep-12 21:29N 64°48' E 010°33'0 0.0
2017-Sep-12 21:00N 64°48' E 010°33'0 0.0
2017-Sep-12 20:30N 64°48' E 010°33'0 0.0
2017-Sep-12 20:00N 64°48' E 010°33'0 0.0
2017-Sep-12 19:30N 64°48' E 010°33'0 0.0
2017-Sep-12 19:00N 64°48' E 010°33'0 0.0
2017-Sep-12 18:30N 64°48' E 010°33'0 0.0
2017-Sep-12 18:00N 64°48' E 010°33'0 0.0
2017-Sep-12 17:30N 64°48' E 010°33'0 0.0
2017-Sep-12 17:00N 64°48' E 010°33'0 0.0
2017-Sep-12 16:29N 64°48' E 010°33'0 0.0
2017-Sep-12 16:00N 64°48' E 010°33'0 0.0
2017-Sep-12 15:30N 64°48' E 010°33'1 1.7
2017-Sep-12 15:00N 64°48' E 010°34'1 1.9
2017-Sep-12 14:30N 64°48' E 010°36'0 0.7
2017-Sep-12 14:00N 64°48' E 010°37'1 1.4
2017-Sep-12 13:31N 64°47' E 010°39'1 1.4
2017-Sep-12 13:00N 64°47' E 010°37'1 3.0
2017-Sep-12 12:30N 64°46' E 010°39'1 1.4
2017-Sep-12 12:00N 64°45' E 010°38'1 1.0
2017-Sep-12 11:30N 64°45' E 010°37'1 2.5
2017-Sep-12 11:00N 64°45' E 010°34'1 1.9
2017-Sep-12 10:30N 64°46' E 010°33'2 4.5
2017-Sep-12 10:00N 64°48' E 010°33'1 1.5
2017-Sep-12 09:30N 64°48' E 010°32'1 1.2
2017-Sep-12 09:00N 64°47' E 010°31'0 0.7
2017-Sep-12 08:30N 64°47' E 010°31'1 1.3
2017-Sep-12 08:00N 64°47' E 010°29'1 2.9
2017-Sep-12 07:30N 64°47' E 010°33'1 2.1
2017-Sep-12 07:00N 64°48' E 010°33'0 0.0
2017-Sep-12 06:30N 64°48' E 010°33'0 0.0
2017-Sep-12 06:00N 64°48' E 010°33'0 0.0
2017-Sep-12 05:30N 64°48' E 010°33'0 0.0
2017-Sep-12 05:00N 64°48' E 010°33'0 0.0
2017-Sep-12 04:30N 64°48' E 010°33'0 0.0
2017-Sep-12 04:00N 64°48' E 010°33'0 0.0
2017-Sep-12 03:30N 64°48' E 010°33'0 0.0
2017-Sep-12 03:00N 64°48' E 010°33'0 0.0
2017-Sep-12 02:30N 64°48' E 010°33'  
Track history (hours):
 
Tides and Currents Weather Stations Pressure Air Temp Water Temp Dewpoint Dewpoint Depression Visibility Wind Speed Wind Dir Waves Ship Positions

Oceanographic research ship Fangst (Norway)

Detailed information on ship capabilities available from University of Delaware's Ocean Information Center and ARCUS's ALIAS (Arctic Logistics Information and Support) project.

Last reported at 2017-Sep-22 02:00 UTC. Time now 2017-Sep-23 05:41 UTC.
Position N 69°32' E 019°01'.

Length 14 m; draft 2.5 m.

Type: Fishing. MMSI: 257076840.

Date/timePositionNaut miles runAvg speedWind from/ knotsBaromVisibWave heightAir tempDewpointWater temp
2017-Sep-22 02:00N 69°32' E 019°01'0 0.0
2017-Sep-22 01:30N 69°32' E 019°01'0 0.0
2017-Sep-22 01:00N 69°32' E 019°01'0 0.0
2017-Sep-22 00:30N 69°32' E 019°01'0 0.0
2017-Sep-22 00:00N 69°32' E 019°01'0 0.0
2017-Sep-21 23:30N 69°32' E 019°01'0 0.0
2017-Sep-21 23:00N 69°32' E 019°01'0 0.0
2017-Sep-21 22:29N 69°32' E 019°01'0 0.0
2017-Sep-21 21:59N 69°32' E 019°01'0 0.0
2017-Sep-21 21:30N 69°32' E 019°01'0 0.0
2017-Sep-21 21:00N 69°32' E 019°01'0 0.0
2017-Sep-21 20:30N 69°32' E 019°01'0 0.0
2017-Sep-21 20:00N 69°32' E 019°01'0 0.0
2017-Sep-21 19:30N 69°32' E 019°01'0 0.0
2017-Sep-21 19:00N 69°32' E 019°01'0 0.0
2017-Sep-21 18:30N 69°32' E 019°01'0 0.0
2017-Sep-21 18:00N 69°32' E 019°01'0 0.4
2017-Sep-21 17:30N 69°32' E 019°02'0 0.2
2017-Sep-21 17:00N 69°32' E 019°02'1 1.3
2017-Sep-21 16:30N 69°32' E 019°03'1 2.2
2017-Sep-21 16:00N 69°31' E 019°01'2 3.9
2017-Sep-21 15:30N 69°31' E 018°56'0 0.4
2017-Sep-21 15:00N 69°31' E 018°57'0 0.5
2017-Sep-21 14:30N 69°31' E 018°57'0 1.0
2017-Sep-21 14:00N 69°30' E 018°56'1 2.4
2017-Sep-21 13:30N 69°31' E 018°59'1 2.2
2017-Sep-21 13:00N 69°32' E 019°02'0 0.5
2017-Sep-21 12:30N 69°32' E 019°01'0 0.9
2017-Sep-21 12:00N 69°32' E 019°02'0 0.5
2017-Sep-21 11:30N 69°32' E 019°03'0 0.5
2017-Sep-21 11:00N 69°32' E 019°03'0 0.4
2017-Sep-21 10:30N 69°32' E 019°03'0 0.8
2017-Sep-21 09:59N 69°33' E 019°03'0 0.2
2017-Sep-21 09:30N 69°33' E 019°03'1 2.2
2017-Sep-21 09:00N 69°32' E 019°02'1 2.6
2017-Sep-21 08:30N 69°33' E 019°04'0 0.2
2017-Sep-21 08:00N 69°33' E 019°04'1 2.8
2017-Sep-21 07:30N 69°32' E 019°02'0 0.3
2017-Sep-21 06:59N 69°32' E 019°02'0 0.5
2017-Sep-21 06:30N 69°32' E 019°01'0 0.0
2017-Sep-21 06:00N 69°32' E 019°01'0 0.0
2017-Sep-21 05:30N 69°32' E 019°01'0 0.0
2017-Sep-21 05:00N 69°32' E 019°01'0 0.0
2017-Sep-21 04:30N 69°32' E 019°01'0 0.0
2017-Sep-21 04:00N 69°32' E 019°01'0 0.0
2017-Sep-21 03:30N 69°32' E 019°01'0 0.0
2017-Sep-21 03:00N 69°32' E 019°01'0 0.0
2017-Sep-21 02:30N 69°32' E 019°01'0 0.0
2017-Sep-21 02:00N 69°32' E 019°01'0 0.0
2017-Sep-21 01:29N 69°32' E 019°01'0 0.0
2017-Sep-21 01:00N 69°32' E 019°01'0 0.0
2017-Sep-21 00:30N 69°32' E 019°01'0 0.0
2017-Sep-21 00:00N 69°32' E 019°01'0 0.0
2017-Sep-20 23:30N 69°32' E 019°01'0 0.0
2017-Sep-20 23:00N 69°32' E 019°01'0 0.0
2017-Sep-20 22:30N 69°32' E 019°01'0 0.0
2017-Sep-20 22:00N 69°32' E 019°01'0 0.0
2017-Sep-20 21:30N 69°32' E 019°01'0 0.0
2017-Sep-20 21:00N 69°32' E 019°01'0 0.0
2017-Sep-20 20:30N 69°32' E 019°01'0 0.0
2017-Sep-20 20:00N 69°32' E 019°01'0 0.0
2017-Sep-20 19:30N 69°32' E 019°01'0 0.0
2017-Sep-20 19:00N 69°32' E 019°01'0 0.0
2017-Sep-20 18:30N 69°32' E 019°01'0 0.0
2017-Sep-20 18:00N 69°32' E 019°01'0 0.0
2017-Sep-20 17:30N 69°32' E 019°01'0 0.5
2017-Sep-20 17:00N 69°32' E 019°02'1 1.3
2017-Sep-20 16:30N 69°32' E 019°03'1 1.2
2017-Sep-20 16:00N 69°32' E 019°02'0 0.2
2017-Sep-20 15:30N 69°32' E 019°02'0 0.1
2017-Sep-20 14:59N 69°32' E 019°02'0 0.2
2017-Sep-20 14:00N 69°32' E 019°02'1 2.0
2017-Sep-20 13:30N 69°33' E 019°03'0 0.5
2017-Sep-20 13:00N 69°33' E 019°03'0 0.2
2017-Sep-20 12:30N 69°33' E 019°03'1 1.7
2017-Sep-20 12:00N 69°32' E 019°03'0 0.1
2017-Sep-20 11:30N 69°32' E 019°03'0 0.1
2017-Sep-20 11:00N 69°32' E 019°03'0 1.0
2017-Sep-20 10:30N 69°32' E 019°03'0 0.1
2017-Sep-20 10:00N 69°32' E 019°03'0 1.0
2017-Sep-20 09:30N 69°32' E 019°02'0 0.6
2017-Sep-20 09:00N 69°32' E 019°02'0 0.4
2017-Sep-20 08:30N 69°32' E 019°02'0 0.6
2017-Sep-20 08:00N 69°32' E 019°02'0 0.2
2017-Sep-20 07:30N 69°32' E 019°02'0 0.3
2017-Sep-20 07:00N 69°32' E 019°02'0 0.3
2017-Sep-20 06:30N 69°32' E 019°01'0 0.0
2017-Sep-20 06:00N 69°32' E 019°01'0 0.0
2017-Sep-20 05:30N 69°32' E 019°01'0 0.0
2017-Sep-20 05:00N 69°32' E 019°01'0 0.0
2017-Sep-20 04:30N 69°32' E 019°01'0 0.0
2017-Sep-20 03:59N 69°32' E 019°01'0 0.0
2017-Sep-20 03:30N 69°32' E 019°01'0 0.0
2017-Sep-20 03:00N 69°32' E 019°01'0 0.0
2017-Sep-20 02:30N 69°32' E 019°01'0 0.0
2017-Sep-20 02:00N 69°32' E 019°01'0 0.0
2017-Sep-20 01:30N 69°32' E 019°01'0 0.0
2017-Sep-20 01:00N 69°32' E 019°01'0 0.0
2017-Sep-20 00:30N 69°32' E 019°01'0 0.0
2017-Sep-20 00:00N 69°32' E 019°01'0 0.0
2017-Sep-19 23:30N 69°32' E 019°01'0 0.0
2017-Sep-19 23:00N 69°32' E 019°01'0 0.0
2017-Sep-19 22:30N 69°32' E 019°01'0 0.0
2017-Sep-19 22:00N 69°32' E 019°01'0 0.0
2017-Sep-19 21:30N 69°32' E 019°01'0 0.0
2017-Sep-19 21:00N 69°32' E 019°01'0 0.0
2017-Sep-19 20:30N 69°32' E 019°01'0 0.0
2017-Sep-19 20:00N 69°32' E 019°01'0 0.0
2017-Sep-19 19:30N 69°32' E 019°01'0 0.0
2017-Sep-19 19:00N 69°32' E 019°01'0 0.0
2017-Sep-19 18:30N 69°32' E 019°01'0 0.0
2017-Sep-19 18:00N 69°32' E 019°01'0 0.0
2017-Sep-19 17:30N 69°32' E 019°01'0 0.0
2017-Sep-19 17:00N 69°32' E 019°01'0 0.0
2017-Sep-19 16:30N 69°32' E 019°01'1 1.0
2017-Sep-19 16:00N 69°32' E 019°03'1 1.0
2017-Sep-19 15:30N 69°32' E 019°03'0 0.9
2017-Sep-19 15:00N 69°32' E 019°03'0 0.4
2017-Sep-19 14:30N 69°32' E 019°03'0 0.3
2017-Sep-19 14:00N 69°32' E 019°03'2 4.7
2017-Sep-19 13:29N 69°31' E 018°57'0 0.7
2017-Sep-19 13:00N 69°30' E 018°57'0 0.5
2017-Sep-19 12:30N 69°31' E 018°56'1 1.5
2017-Sep-19 12:00N 69°30' E 018°56'0 0.6
2017-Sep-19 11:31N 69°30' E 018°56'0 0.8
2017-Sep-19 11:00N 69°31' E 018°56'2 4.0
2017-Sep-19 10:30N 69°32' E 018°54'2 3.7
2017-Sep-19 10:00N 69°34' E 018°53'0 0.5
2017-Sep-19 09:30N 69°34' E 018°53'1 2.0
2017-Sep-19 09:00N 69°35' E 018°54'2 4.9
2017-Sep-19 08:30N 69°37' E 018°56'2 3.7
2017-Sep-19 08:00N 69°39' E 018°58'0 0.0
2017-Sep-19 07:30N 69°39' E 018°58'0 0.0
2017-Sep-19 07:00N 69°39' E 018°58'0 0.0
2017-Sep-19 06:30N 69°39' E 018°58'0 0.0
2017-Sep-19 06:00N 69°39' E 018°58'0 0.0
2017-Sep-19 05:29N 69°39' E 018°58'0 0.0
2017-Sep-19 05:00N 69°39' E 018°58'0 0.0
2017-Sep-19 04:30N 69°39' E 018°58'0 0.0
2017-Sep-19 04:00N 69°39' E 018°58'0 0.0
2017-Sep-19 03:30N 69°39' E 018°58'0 0.0
2017-Sep-19 02:59N 69°39' E 018°58'0 0.0
2017-Sep-19 02:30N 69°39' E 018°58'0 0.0
2017-Sep-19 02:00N 69°39' E 018°58'0 0.0
2017-Sep-19 01:30N 69°39' E 018°58'0 0.0
2017-Sep-19 01:00N 69°39' E 018°58'0 0.0
2017-Sep-19 00:30N 69°39' E 018°58'0 0.0
2017-Sep-18 23:59N 69°39' E 018°58'0 0.0
2017-Sep-18 23:30N 69°39' E 018°58'0 0.0
2017-Sep-18 23:00N 69°39' E 018°58'0 0.0
2017-Sep-18 22:30N 69°39' E 018°58'0 0.0
2017-Sep-18 22:00N 69°39' E 018°58'0 0.0
2017-Sep-18 21:30N 69°39' E 018°58'0 0.0
2017-Sep-18 21:00N 69°39' E 018°58'0 0.0
2017-Sep-18 20:30N 69°39' E 018°58'0 0.0
2017-Sep-18 20:00N 69°39' E 018°58'0 0.0
2017-Sep-18 19:30N 69°39' E 018°58'0 0.0
2017-Sep-18 19:00N 69°39' E 018°58'0 0.0
2017-Sep-18 18:30N 69°39' E 018°58'0 0.0
2017-Sep-18 18:00N 69°39' E 018°58'0 0.0
2017-Sep-18 17:30N 69°39' E 018°58'0 0.0
2017-Sep-18 17:00N 69°39' E 018°58'2 3.9
2017-Sep-18 16:30N 69°37' E 018°56'3 6.2
2017-Sep-18 16:00N 69°34' E 018°53'0 0.9
2017-Sep-18 15:30N 69°34' E 018°54'1 2.5
2017-Sep-18 15:00N 69°35' E 018°53'3 5.0
2017-Sep-18 14:30N 69°38' E 018°56'2 4.1
2017-Sep-18 14:00N 69°39' E 018°58'1 1.2
2017-Sep-18 13:29N 69°39' E 018°58'1 1.2
2017-Sep-18 13:00N 69°39' E 018°59'1 2.3
2017-Sep-18 12:30N 69°40' E 018°59'1 1.9
2017-Sep-18 12:00N 69°39' E 018°58'0 0.0
2017-Sep-18 11:29N 69°39' E 018°58'0 0.0
2017-Sep-18 11:00N 69°39' E 018°58'0 0.0
2017-Sep-18 10:30N 69°39' E 018°58'0 0.0
2017-Sep-18 09:59N 69°39' E 018°58'0 0.0
2017-Sep-18 09:30N 69°39' E 018°58'1 1.3
2017-Sep-18 09:00N 69°39' E 018°58'0 0.4
2017-Sep-18 08:30N 69°39' E 018°58'0 0.0
2017-Sep-18 08:00N 69°39' E 018°58'0 0.0
2017-Sep-18 07:29N 69°39' E 018°58'0 0.0
2017-Sep-18 07:00N 69°39' E 018°58'0 0.0
2017-Sep-18 06:30N 69°39' E 018°58'0 0.0
2017-Sep-18 06:00N 69°39' E 018°58'0 0.0
2017-Sep-18 05:30N 69°39' E 018°58'0 0.0
2017-Sep-18 05:00N 69°39' E 018°58'0 0.0
2017-Sep-18 04:30N 69°39' E 018°58'0 0.0
2017-Sep-18 04:00N 69°39' E 018°58'0 0.0
2017-Sep-18 03:30N 69°39' E 018°58'0 0.0
2017-Sep-18 03:00N 69°39' E 018°58'0 0.0
2017-Sep-18 02:30N 69°39' E 018°58'0 0.0
2017-Sep-18 02:00N 69°39' E 018°58'0 0.0
2017-Sep-18 01:29N 69°39' E 018°58'0 0.0
2017-Sep-18 00:59N 69°39' E 018°58'0 0.0
2017-Sep-18 00:30N 69°39' E 018°58'0 0.0
2017-Sep-18 00:00N 69°39' E 018°58'0 0.0
2017-Sep-17 23:30N 69°39' E 018°58'0 0.0
2017-Sep-17 23:00N 69°39' E 018°58'0 0.0
2017-Sep-17 22:30N 69°39' E 018°58'0 0.0
2017-Sep-17 22:00N 69°39' E 018°58'0 0.0
2017-Sep-17 21:30N 69°39' E 018°58'0 0.0
2017-Sep-17 21:00N 69°39' E 018°58'0 0.0
2017-Sep-17 20:30N 69°39' E 018°58'0 0.0
2017-Sep-17 20:00N 69°39' E 018°58'0 0.0
2017-Sep-17 19:30N 69°39' E 018°58'0 0.0
2017-Sep-17 19:00N 69°39' E 018°58'0 0.0
2017-Sep-17 18:30N 69°39' E 018°58'0 0.0
2017-Sep-17 18:00N 69°39' E 018°58'0 0.0
2017-Sep-17 17:30N 69°39' E 018°58'0 0.0
2017-Sep-17 17:00N 69°39' E 018°58'0 0.0
2017-Sep-17 16:30N 69°39' E 018°58'0 0.0
2017-Sep-17 16:00N 69°39' E 018°58'0 0.0
2017-Sep-17 15:30N 69°39' E 018°58'0 0.0
2017-Sep-17 15:00N 69°39' E 018°58'0 0.0
2017-Sep-17 14:29N 69°39' E 018°58'0 0.0
2017-Sep-17 14:00N 69°39' E 018°58'0 0.0
2017-Sep-17 13:30N 69°39' E 018°58'0 0.0
2017-Sep-17 13:00N 69°39' E 018°58'0 0.0
2017-Sep-17 12:30N 69°39' E 018°58'0 0.0
2017-Sep-17 12:00N 69°39' E 018°58'0 0.0
2017-Sep-17 11:30N 69°39' E 018°58'0 0.0
2017-Sep-17 11:00N 69°39' E 018°58'0 0.1
2017-Sep-17 10:30N 69°39' E 018°58'0 0.0
2017-Sep-17 10:00N 69°39' E 018°58'0 0.0
2017-Sep-17 09:30N 69°39' E 018°58'0 0.0
2017-Sep-17 09:00N 69°39' E 018°58'0 0.0
2017-Sep-17 08:30N 69°39' E 018°58'0 0.0
2017-Sep-17 08:00N 69°39' E 018°58'0 0.0
2017-Sep-17 07:30N 69°39' E 018°58'0 0.0
2017-Sep-17 07:00N 69°39' E 018°58'0 0.0
2017-Sep-17 06:30N 69°39' E 018°58'0 0.0
2017-Sep-17 05:59N 69°39' E 018°58'0 0.0
2017-Sep-17 05:29N 69°39' E 018°58'0 0.0
2017-Sep-17 05:00N 69°39' E 018°58'0 0.0
2017-Sep-17 04:29N 69°39' E 018°58'0 0.0
2017-Sep-17 04:00N 69°39' E 018°58'0 0.0
2017-Sep-17 03:30N 69°39' E 018°58'0 0.0
2017-Sep-17 03:00N 69°39' E 018°58'0 0.0
2017-Sep-17 02:30N 69°39' E 018°58'0 0.0
2017-Sep-17 02:00N 69°39' E 018°58'0 0.0
2017-Sep-17 01:30N 69°39' E 018°58'0 0.0
2017-Sep-17 01:00N 69°39' E 018°58'0 0.0
2017-Sep-17 00:30N 69°39' E 018°58'0 0.0
2017-Sep-16 23:59N 69°39' E 018°58'0 0.0
2017-Sep-16 23:30N 69°39' E 018°58'0 0.0
2017-Sep-16 23:00N 69°39' E 018°58'0 0.0
2017-Sep-16 22:30N 69°39' E 018°58'0 0.0
2017-Sep-16 22:00N 69°39' E 018°58'1 2.5
2017-Sep-16 21:30N 69°38' E 018°56'4 7.0
2017-Sep-16 20:59N 69°35' E 018°50'4 7.3
2017-Sep-16 20:30N 69°33' E 018°42'4 7.5
2017-Sep-16 20:00N 69°32' E 018°32'4 7.5
2017-Sep-16 19:30N 69°31' E 018°21'4 7.2
2017-Sep-16 19:00N 69°29' E 018°12'3 6.7
2017-Sep-16 18:30N 69°26' E 018°07'4 7.1
2017-Sep-16 18:00N 69°23' E 018°05'3 6.2
2017-Sep-16 17:30N 69°20' E 018°02'3 6.6
2017-Sep-16 17:00N 69°17' E 017°58'3 6.9
2017-Sep-16 16:30N 69°13' E 017°59'3 5.7
2017-Sep-16 16:00N 69°10' E 017°58'4 7.1
2017-Sep-16 15:30N 69°09' E 017°49'4 7.2
2017-Sep-16 15:00N 69°08' E 017°40'4 7.1
2017-Sep-16 14:30N 69°06' E 017°30'4 7.2
2017-Sep-16 14:00N 69°04' E 017°22'4 7.1
2017-Sep-16 13:30N 69°01' E 017°16'3 7.1
2017-Sep-16 13:00N 68°58' E 017°11'4 7.4
2017-Sep-16 12:30N 68°55' E 017°04'4 7.1
2017-Sep-16 12:00N 68°52' E 016°59'4 7.3
2017-Sep-16 11:30N 68°49' E 016°54'4 7.4
2017-Sep-16 11:00N 68°46' E 016°49'4 7.2
2017-Sep-16 10:30N 68°43' E 016°43'4 7.2
2017-Sep-16 10:00N 68°40' E 016°38'4 8.2
2017-Sep-16 09:30N 68°36' E 016°33'4 7.4
2017-Sep-16 09:00N 68°33' E 016°27'4 7.6
2017-Sep-16 08:30N 68°33' E 016°16'3 7.0
2017-Sep-16 08:00N 68°31' E 016°10'3 7.0
2017-Sep-16 07:30N 68°28' E 016°05'3 6.8
2017-Sep-16 07:00N 68°24' E 016°01'3 6.5
2017-Sep-16 06:30N 68°22' E 015°56'3 6.4
2017-Sep-16 05:59N 68°19' E 015°51'3 6.6
2017-Sep-16 05:30N 68°17' E 015°45'3 6.4
2017-Sep-16 05:00N 68°15' E 015°39'3 6.3
2017-Sep-16 04:30N 68°13' E 015°32'3 6.5
2017-Sep-16 04:00N 68°10' E 015°26'3 6.6
2017-Sep-16 03:29N 68°08' E 015°20'3 6.8
2017-Sep-16 03:00N 68°05' E 015°16'3 6.9
2017-Sep-16 02:30N 68°01' E 015°17'3 7.0
2017-Sep-16 02:00N 67°58' E 015°20'3 6.2
2017-Sep-16 01:30N 67°55' E 015°17'3 6.6
2017-Sep-16 01:00N 67°54' E 015°09'3 6.7
2017-Sep-16 00:29N 67°55' E 014°60'3 6.6
2017-Sep-16 00:00N 67°53' E 014°52'3 6.6
2017-Sep-15 23:30N 67°52' E 014°44'3 6.3
2017-Sep-15 23:00N 67°49' E 014°38'3 6.1
2017-Sep-15 22:30N 67°47' E 014°32'3 6.5
2017-Sep-15 22:00N 67°44' E 014°31'3 6.6
2017-Sep-15 21:30N 67°41' E 014°31'3 6.6
2017-Sep-15 21:00N 67°38' E 014°30'3 6.7
2017-Sep-15 20:30N 67°34' E 014°30'3 6.6
2017-Sep-15 20:00N 67°31' E 014°29'3 6.6
2017-Sep-15 19:30N 67°28' E 014°28'3 6.4
2017-Sep-15 19:00N 67°25' E 014°26'3 6.7
2017-Sep-15 18:30N 67°22' E 014°23'3 6.9
2017-Sep-15 18:00N 67°19' E 014°17'3 6.9
2017-Sep-15 17:30N 67°16' E 014°12'3 7.0
2017-Sep-15 17:00N 67°13' E 014°08'4 7.1
2017-Sep-15 16:30N 67°10' E 014°03'4 7.2
2017-Sep-15 16:00N 67°07' E 013°59'4 7.0
2017-Sep-15 15:30N 67°04' E 013°54'4 7.1
2017-Sep-15 15:00N 67°02' E 013°46'4 7.2
2017-Sep-15 14:30N 66°60' E 013°39'4 7.2
2017-Sep-15 14:00N 66°58' E 013°31'3 6.8
2017-Sep-15 13:30N 66°54' E 013°29'4 7.1
2017-Sep-15 13:00N 66°52' E 013°22'4 7.1
2017-Sep-15 12:30N 66°50' E 013°16'4 7.2
2017-Sep-15 12:00N 66°46' E 013°14'3 7.0
2017-Sep-15 11:30N 66°43' E 013°11'3 7.0
2017-Sep-15 11:00N 66°40' E 013°07'4 7.1
2017-Sep-15 10:30N 66°36' E 013°04'3 6.7
2017-Sep-15 10:00N 66°33' E 013°02'3 6.4
2017-Sep-15 09:30N 66°30' E 012°59'4 7.2
2017-Sep-15 09:00N 66°26' E 012°59'3 7.1
2017-Sep-15 08:30N 66°23' E 012°58'4 7.0
2017-Sep-15 08:00N 66°19' E 012°57'3 6.9
2017-Sep-15 07:30N 66°16' E 012°55'4 7.2
2017-Sep-15 07:00N 66°13' E 012°52'4 7.2
2017-Sep-15 06:30N 66°09' E 012°49'4 7.2
2017-Sep-15 06:00N 66°06' E 012°44'4 7.2
2017-Sep-15 05:30N 66°04' E 012°38'4 7.3
2017-Sep-15 05:00N 66°01' E 012°32'0 1.0
2017-Sep-15 04:30N 66°01' E 012°32'4 7.1
2017-Sep-15 04:00N 65°58' E 012°27'4 7.0
2017-Sep-15 03:30N 65°55' E 012°23'4 7.1
2017-Sep-15 03:00N 65°51' E 012°22'4 7.1
2017-Sep-15 02:29N 65°48' E 012°20'4 7.0
2017-Sep-15 01:59N 65°44' E 012°18'4 7.1
2017-Sep-15 01:30N 65°41' E 012°16'4 7.1
2017-Sep-15 01:00N 65°37' E 012°15'3 7.0
2017-Sep-15 00:30N 65°34' E 012°13'3 6.9
2017-Sep-15 00:00N 65°30' E 012°12'2 4.5
2017-Sep-14 23:30N 65°28' E 012°12'2 3.0
2017-Sep-14 22:59N 65°27' E 012°10'3 6.8
2017-Sep-14 22:30N 65°24' E 012°07'3 6.9
2017-Sep-14 22:00N 65°21' E 012°03'3 6.8
2017-Sep-14 21:30N 65°18' E 011°59'3 6.9
2017-Sep-14 21:00N 65°15' E 011°56'4 7.2
2017-Sep-14 20:30N 65°11' E 011°52'3 7.0
2017-Sep-14 20:00N 65°08' E 011°50'3 6.7
2017-Sep-14 19:30N 65°05' E 011°47'3 6.6
2017-Sep-14 19:00N 65°02' E 011°43'3 6.3
2017-Sep-14 18:30N 65°00' E 011°37'3 7.0
2017-Sep-14 18:00N 64°58' E 011°32'4 7.2
2017-Sep-14 17:30N 64°55' E 011°25'4 7.8
2017-Sep-14 17:00N 64°53' E 011°18'2 4.4
2017-Sep-14 16:30N 64°52' E 011°14'0 0.0
2017-Sep-14 16:00N 64°52' E 011°14'0 0.0
2017-Sep-14 15:30N 64°52' E 011°14'0 0.2
2017-Sep-14 15:00N 64°52' E 011°14'0 0.0
2017-Sep-14 14:30N 64°52' E 011°14'0 0.0
2017-Sep-14 14:00N 64°52' E 011°14'0 0.0
2017-Sep-14 13:30N 64°52' E 011°14'0 0.0
2017-Sep-14 13:00N 64°52' E 011°14'0 0.0
2017-Sep-14 12:30N 64°52' E 011°14'0 0.0
2017-Sep-14 12:00N 64°52' E 011°14'0 0.0
2017-Sep-14 11:30N 64°52' E 011°14'0 0.0
2017-Sep-14 11:00N 64°52' E 011°14'0 0.0
2017-Sep-14 10:30N 64°52' E 011°14'0 0.0
2017-Sep-14 10:00N 64°52' E 011°14'0 0.0
2017-Sep-14 09:30N 64°52' E 011°14'1 2.0
2017-Sep-14 09:00N 64°51' E 011°12'3 6.5
2017-Sep-14 08:30N 64°49' E 011°06'3 6.6
2017-Sep-14 08:00N 64°48' E 010°58'3 6.6
2017-Sep-14 07:30N 64°49' E 010°51'3 6.4
2017-Sep-14 07:00N 64°49' E 010°43'3 6.7
2017-Sep-14 06:30N 64°48' E 010°36'1 2.7
2017-Sep-14 05:59N 64°48' E 010°33'0 0.0
2017-Sep-14 05:30N 64°48' E 010°33'0 0.0
2017-Sep-14 05:00N 64°48' E 010°33'0 0.0
2017-Sep-14 04:30N 64°48' E 010°33'0 0.0
2017-Sep-14 04:00N 64°48' E 010°33'0 0.0
2017-Sep-14 03:30N 64°48' E 010°33'0 0.0
2017-Sep-14 03:00N 64°48' E 010°33'0 0.0
2017-Sep-14 02:30N 64°48' E 010°33'0 0.0
2017-Sep-14 02:00N 64°48' E 010°33'0 0.0
2017-Sep-14 01:29N 64°48' E 010°33'0 0.0
2017-Sep-14 01:00N 64°48' E 010°33'0 0.0
2017-Sep-14 00:29N 64°48' E 010°33'0 0.0
2017-Sep-14 00:00N 64°48' E 010°33'0 0.0
2017-Sep-13 23:30N 64°48' E 010°33'0 0.0
2017-Sep-13 23:00N 64°48' E 010°33'0 0.0
2017-Sep-13 22:30N 64°48' E 010°33'0 0.0
2017-Sep-13 22:00N 64°48' E 010°33'0 0.0
2017-Sep-13 21:30N 64°48' E 010°33'0 0.0
2017-Sep-13 21:00N 64°48' E 010°33'0 0.0
2017-Sep-13 20:30N 64°48' E 010°33'0 0.0
2017-Sep-13 20:00N 64°48' E 010°33'0 0.0
2017-Sep-13 19:30N 64°48' E 010°33'0 0.0
2017-Sep-13 19:00N 64°48' E 010°33'0 0.0
2017-Sep-13 18:30N 64°48' E 010°33'0 0.0
2017-Sep-13 17:59N 64°48' E 010°33'0 0.0
2017-Sep-13 17:30N 64°48' E 010°33'0 0.0
2017-Sep-13 17:00N 64°48' E 010°33'0 0.0
2017-Sep-13 16:30N 64°48' E 010°33'0 0.0
2017-Sep-13 15:59N 64°48' E 010°33'0 0.0
2017-Sep-13 15:30N 64°48' E 010°33'0 0.0
2017-Sep-13 15:00N 64°48' E 010°33'0 0.0
2017-Sep-13 14:29N 64°48' E 010°33'0 0.0
2017-Sep-13 14:00N 64°48' E 010°33'0 0.0
2017-Sep-13 13:29N 64°48' E 010°33'0 0.0
2017-Sep-13 13:00N 64°48' E 010°33'0 0.0
2017-Sep-13 12:30N 64°48' E 010°33'0 0.0
2017-Sep-13 12:00N 64°48' E 010°33'0 0.0
2017-Sep-13 11:30N 64°48' E 010°33'0 0.0
2017-Sep-13 10:59N 64°48' E 010°33'0 0.0
2017-Sep-13 10:30N 64°48' E 010°33'0 0.0
2017-Sep-13 10:00N 64°48' E 010°33'0 0.0
2017-Sep-13 09:30N 64°48' E 010°33'2 3.7
2017-Sep-13 09:00N 64°47' E 010°36'1 2.6
2017-Sep-13 08:30N 64°47' E 010°39'2 3.3
2017-Sep-13 08:00N 64°45' E 010°37'1 3.0
2017-Sep-13 07:30N 64°46' E 010°34'3 5.6
2017-Sep-13 06:59N 64°48' E 010°33'0 0.0
2017-Sep-13 06:30N 64°48' E 010°33'0 0.0
2017-Sep-13 06:00N 64°48' E 010°33'0 0.0
2017-Sep-13 05:30N 64°48' E 010°33'0 0.0
2017-Sep-13 05:00N 64°48' E 010°33'0 0.0
2017-Sep-13 04:29N 64°48' E 010°33'0 0.0
2017-Sep-13 04:00N 64°48' E 010°33'0 0.0
2017-Sep-13 03:30N 64°48' E 010°33'0 0.0
2017-Sep-13 03:00N 64°48' E 010°33'0 0.0
2017-Sep-13 02:30N 64°48' E 010°33'0 0.0
2017-Sep-13 02:00N 64°48' E 010°33'0 0.0
2017-Sep-13 01:30N 64°48' E 010°33'0 0.0
2017-Sep-13 01:00N 64°48' E 010°33'0 0.0
2017-Sep-13 00:30N 64°48' E 010°33'0 0.0
2017-Sep-13 00:00N 64°48' E 010°33'0 0.0
2017-Sep-12 23:30N 64°48' E 010°33'0 0.0
2017-Sep-12 23:00N 64°48' E 010°33'0 0.0
2017-Sep-12 22:30N 64°48' E 010°33'0 0.0
2017-Sep-12 22:00N 64°48' E 010°33'0 0.0
2017-Sep-12 21:29N 64°48' E 010°33'0 0.0
2017-Sep-12 21:00N 64°48' E 010°33'0 0.0
2017-Sep-12 20:30N 64°48' E 010°33'0 0.0
2017-Sep-12 20:00N 64°48' E 010°33'0 0.0
2017-Sep-12 19:30N 64°48' E 010°33'0 0.0
2017-Sep-12 19:00N 64°48' E 010°33'0 0.0
2017-Sep-12 18:30N 64°48' E 010°33'0 0.0
2017-Sep-12 18:00N 64°48' E 010°33'0 0.0
2017-Sep-12 17:30N 64°48' E 010°33'0 0.0
2017-Sep-12 17:00N 64°48' E 010°33'0 0.0
2017-Sep-12 16:29N 64°48' E 010°33'0 0.0
2017-Sep-12 16:00N 64°48' E 010°33'0 0.0
2017-Sep-12 15:30N 64°48' E 010°33'1 1.7
2017-Sep-12 15:00N 64°48' E 010°34'1 1.9
2017-Sep-12 14:30N 64°48' E 010°36'0 0.7
2017-Sep-12 14:00N 64°48' E 010°37'1 1.4
2017-Sep-12 13:31N 64°47' E 010°39'1 1.4
2017-Sep-12 13:00N 64°47' E 010°37'1 3.0
2017-Sep-12 12:30N 64°46' E 010°39'1 1.4
2017-Sep-12 12:00N 64°45' E 010°38'1 1.0
2017-Sep-12 11:30N 64°45' E 010°37'1 2.5
2017-Sep-12 11:00N 64°45' E 010°34'1 1.9
2017-Sep-12 10:30N 64°46' E 010°33'2 4.5
2017-Sep-12 10:00N 64°48' E 010°33'1 1.5
2017-Sep-12 09:30N 64°48' E 010°32'1 1.2
2017-Sep-12 09:00N 64°47' E 010°31'0 0.7
2017-Sep-12 08:30N 64°47' E 010°31'1 1.3
2017-Sep-12 08:00N 64°47' E 010°29'1 2.9
2017-Sep-12 07:30N 64°47' E 010°33'1 2.1
2017-Sep-12 07:00N 64°48' E 010°33'0 0.0
2017-Sep-12 06:30N 64°48' E 010°33'0 0.0
2017-Sep-12 06:00N 64°48' E 010°33'0 0.0
2017-Sep-12 05:30N 64°48' E 010°33'0 0.0
2017-Sep-12 05:00N 64°48' E 010°33'0 0.0
2017-Sep-12 04:30N 64°48' E 010°33'0 0.0
2017-Sep-12 04:00N 64°48' E 010°33'0 0.0
2017-Sep-12 03:30N 64°48' E 010°33'0 0.0
2017-Sep-12 03:00N 64°48' E 010°33'0 0.0
2017-Sep-12 02:30N 64°48' E 010°33'  

Dump ship's entire track history